sensor_id;sensor_type;location;lat;lon;timestamp;P1;durP1;ratioP1;P2;durP2;ratioP2
75446;SDS011;64024;55.820;37.574;2023-02-13T00:00:11;2.47;;;1.20;;
75446;SDS011;64024;55.820;37.574;2023-02-13T00:02:39;1.70;;;1.00;;
75446;SDS011;64024;55.820;37.574;2023-02-13T00:05:05;2.10;;;1.40;;
75446;SDS011;64024;55.820;37.574;2023-02-13T00:07:31;2.15;;;1.23;;
75446;SDS011;64024;55.820;37.574;2023-02-13T00:09:57;1.75;;;1.20;;
75446;SDS011;64024;55.820;37.574;2023-02-13T00:12:22;2.38;;;1.30;;
75446;SDS011;64024;55.820;37.574;2023-02-13T00:14:48;3.65;;;1.70;;
75446;SDS011;64024;55.820;37.574;2023-02-13T00:17:13;2.50;;;1.48;;
75446;SDS011;64024;55.820;37.574;2023-02-13T00:19:39;2.05;;;1.45;;
75446;SDS011;64024;55.820;37.574;2023-02-13T00:22:05;2.42;;;1.75;;
75446;SDS011;64024;55.820;37.574;2023-02-13T00:24:30;3.22;;;1.85;;
75446;SDS011;64024;55.820;37.574;2023-02-13T00:26:56;2.97;;;1.40;;
75446;SDS011;64024;55.820;37.574;2023-02-13T00:29:22;3.47;;;1.40;;
75446;SDS011;64024;55.820;37.574;2023-02-13T00:31:47;2.63;;;1.58;;
75446;SDS011;64024;55.820;37.574;2023-02-13T00:34:13;2.20;;;1.48;;
75446;SDS011;64024;55.820;37.574;2023-02-13T00:36:39;1.83;;;1.45;;
75446;SDS011;64024;55.820;37.574;2023-02-13T00:39:04;3.53;;;1.83;;
75446;SDS011;64024;55.820;37.574;2023-02-13T00:41:31;2.78;;;1.80;;
75446;SDS011;64024;55.820;37.574;2023-02-13T00:43:57;2.33;;;1.80;;
75446;SDS011;64024;55.820;37.574;2023-02-13T00:46:23;2.95;;;1.80;;
75446;SDS011;64024;55.820;37.574;2023-02-13T00:48:49;2.42;;;1.65;;
75446;SDS011;64024;55.820;37.574;2023-02-13T00:51:15;2.75;;;1.88;;
75446;SDS011;64024;55.820;37.574;2023-02-13T00:53:41;4.07;;;2.05;;
75446;SDS011;64024;55.820;37.574;2023-02-13T00:56:06;2.42;;;2.03;;
75446;SDS011;64024;55.820;37.574;2023-02-13T00:58:32;2.53;;;1.77;;
75446;SDS011;64024;55.820;37.574;2023-02-13T01:00:58;2.97;;;2.42;;
75446;SDS011;64024;55.820;37.574;2023-02-13T01:03:24;2.90;;;2.10;;
75446;SDS011;64024;55.820;37.574;2023-02-13T01:05:51;3.10;;;2.10;;
75446;SDS011;64024;55.820;37.574;2023-02-13T01:08:17;2.20;;;1.55;;
75446;SDS011;64024;55.820;37.574;2023-02-13T01:10:44;2.30;;;1.52;;
75446;SDS011;64024;55.820;37.574;2023-02-13T01:13:12;2.40;;;2.13;;
75446;SDS011;64024;55.820;37.574;2023-02-13T01:15:38;2.90;;;1.52;;
75446;SDS011;64024;55.820;37.574;2023-02-13T01:18:05;2.83;;;2.08;;
75446;SDS011;64024;55.820;37.574;2023-02-13T01:20:30;2.40;;;1.92;;
75446;SDS011;64024;55.820;37.574;2023-02-13T01:22:56;2.58;;;1.75;;
75446;SDS011;64024;55.820;37.574;2023-02-13T01:25:22;2.75;;;2.03;;
75446;SDS011;64024;55.820;37.574;2023-02-13T01:27:49;2.80;;;1.85;;
75446;SDS011;64024;55.820;37.574;2023-02-13T01:30:15;2.85;;;2.45;;
75446;SDS011;64024;55.820;37.574;2023-02-13T01:32:43;2.63;;;2.10;;
75446;SDS011;64024;55.820;37.574;2023-02-13T01:35:10;2.70;;;2.00;;
75446;SDS011;64024;55.820;37.574;2023-02-13T01:37:37;3.35;;;2.35;;
75446;SDS011;64024;55.820;37.574;2023-02-13T01:40:03;2.63;;;2.08;;
75446;SDS011;64024;55.820;37.574;2023-02-13T01:42:31;2.63;;;2.08;;
75446;SDS011;64024;55.820;37.574;2023-02-13T01:44:59;2.70;;;2.10;;
75446;SDS011;64024;55.820;37.574;2023-02-13T01:47:32;2.58;;;2.00;;
75446;SDS011;64024;55.820;37.574;2023-02-13T01:52:42;3.10;;;2.22;;
75446;SDS011;64024;55.820;37.574;2023-02-13T01:55:16;3.80;;;2.40;;
75446;SDS011;64024;55.820;37.574;2023-02-13T01:57:43;3.50;;;2.67;;
75446;SDS011;64024;55.820;37.574;2023-02-13T02:00:14;3.80;;;2.50;;
75446;SDS011;64024;55.820;37.574;2023-02-13T02:02:45;3.35;;;2.22;;
75446;SDS011;64024;55.820;37.574;2023-02-13T02:05:15;3.50;;;2.63;;
75446;SDS011;64024;55.820;37.574;2023-02-13T02:07:42;2.92;;;2.42;;
75446;SDS011;64024;55.820;37.574;2023-02-13T02:10:18;3.28;;;2.25;;
75446;SDS011;64024;55.820;37.574;2023-02-13T02:12:48;3.17;;;2.80;;
75446;SDS011;64024;55.820;37.574;2023-02-13T02:15:22;2.90;;;2.30;;
75446;SDS011;64024;55.820;37.574;2023-02-13T02:17:47;2.92;;;2.50;;
75446;SDS011;64024;55.820;37.574;2023-02-13T02:28:28;2.78;;;1.98;;
75446;SDS011;64024;55.820;37.574;2023-02-13T02:37:23;3.35;;;2.22;;
75446;SDS011;64024;55.820;37.574;2023-02-13T02:51:23;3.80;;;2.70;;
75446;SDS011;64024;55.820;37.574;2023-02-13T02:57:05;3.17;;;2.05;;
75446;SDS011;64024;55.820;37.574;2023-02-13T02:59:35;2.67;;;2.35;;
75446;SDS011;64024;55.820;37.574;2023-02-13T03:02:21;3.17;;;2.88;;
75446;SDS011;64024;55.820;37.574;2023-02-13T03:05:07;2.17;;;1.60;;
75446;SDS011;64024;55.820;37.574;2023-02-13T03:08:01;3.00;;;2.65;;
75446;SDS011;64024;55.820;37.574;2023-02-13T03:10:30;3.33;;;2.75;;
75446;SDS011;64024;55.820;37.574;2023-02-13T03:13:28;3.00;;;2.40;;
75446;SDS011;64024;55.820;37.574;2023-02-13T03:16:00;2.90;;;1.98;;
75446;SDS011;64024;55.820;37.574;2023-02-13T03:18:46;3.53;;;1.98;;
75446;SDS011;64024;55.820;37.574;2023-02-13T03:30:32;3.40;;;2.30;;
75446;SDS011;64024;55.820;37.574;2023-02-13T03:33:10;2.80;;;2.20;;
75446;SDS011;64024;55.820;37.574;2023-02-13T03:39:06;3.40;;;2.33;;
75446;SDS011;64024;55.820;37.574;2023-02-13T03:41:36;2.53;;;2.08;;
75446;SDS011;64024;55.820;37.574;2023-02-13T03:46:41;3.25;;;2.47;;
75446;SDS011;64024;55.820;37.574;2023-02-13T03:49:16;3.22;;;1.92;;
75446;SDS011;64024;55.820;37.574;2023-02-13T03:55:16;4.30;;;2.33;;
75446;SDS011;64024;55.820;37.574;2023-02-13T03:58:49;2.80;;;2.30;;
75446;SDS011;64024;55.820;37.574;2023-02-13T04:01:13;2.30;;;2.10;;
75446;SDS011;64024;55.820;37.574;2023-02-13T04:07:07;2.58;;;2.13;;
75446;SDS011;64024;55.820;37.574;2023-02-13T04:09:53;3.42;;;2.13;;
75446;SDS011;64024;55.820;37.574;2023-02-13T04:12:36;3.28;;;2.20;;
75446;SDS011;64024;55.820;37.574;2023-02-13T04:15:09;2.63;;;2.40;;
75446;SDS011;64024;55.820;37.574;2023-02-13T04:17:45;2.90;;;2.38;;
75446;SDS011;64024;55.820;37.574;2023-02-13T04:20:14;4.03;;;2.25;;
75446;SDS011;64024;55.820;37.574;2023-02-13T04:22:43;3.53;;;2.25;;
75446;SDS011;64024;55.820;37.574;2023-02-13T04:25:11;3.20;;;2.47;;
75446;SDS011;64024;55.820;37.574;2023-02-13T04:27:41;4.05;;;2.63;;
75446;SDS011;64024;55.820;37.574;2023-02-13T04:30:08;5.15;;;2.80;;
75446;SDS011;64024;55.820;37.574;2023-02-13T04:32:34;4.43;;;2.53;;
75446;SDS011;64024;55.820;37.574;2023-02-13T04:35:00;3.70;;;2.75;;
75446;SDS011;64024;55.820;37.574;2023-02-13T04:37:26;5.88;;;3.33;;
75446;SDS011;64024;55.820;37.574;2023-02-13T04:39:51;3.67;;;2.45;;
75446;SDS011;64024;55.820;37.574;2023-02-13T04:42:17;2.85;;;2.35;;
75446;SDS011;64024;55.820;37.574;2023-02-13T04:44:42;3.92;;;2.92;;
75446;SDS011;64024;55.820;37.574;2023-02-13T04:47:08;3.88;;;2.60;;
75446;SDS011;64024;55.820;37.574;2023-02-13T04:49:33;4.80;;;3.03;;
75446;SDS011;64024;55.820;37.574;2023-02-13T04:51:59;3.78;;;2.28;;
75446;SDS011;64024;55.820;37.574;2023-02-13T04:54:25;3.22;;;2.35;;
75446;SDS011;64024;55.820;37.574;2023-02-13T04:56:50;3.00;;;2.50;;
75446;SDS011;64024;55.820;37.574;2023-02-13T04:59:16;3.65;;;3.13;;
75446;SDS011;64024;55.820;37.574;2023-02-13T05:01:42;5.30;;;2.80;;
75446;SDS011;64024;55.820;37.574;2023-02-13T05:04:08;3.13;;;2.53;;
75446;SDS011;64024;55.820;37.574;2023-02-13T05:06:35;3.00;;;2.50;;
75446;SDS011;64024;55.820;37.574;2023-02-13T05:09:02;3.85;;;3.10;;
75446;SDS011;64024;55.820;37.574;2023-02-13T05:11:28;3.45;;;2.78;;
75446;SDS011;64024;55.820;37.574;2023-02-13T05:13:53;2.95;;;2.50;;
75446;SDS011;64024;55.820;37.574;2023-02-13T05:16:19;3.08;;;2.72;;
75446;SDS011;64024;55.820;37.574;2023-02-13T05:18:45;3.60;;;2.38;;
75446;SDS011;64024;55.820;37.574;2023-02-13T05:21:10;3.60;;;3.00;;
75446;SDS011;64024;55.820;37.574;2023-02-13T05:23:55;3.63;;;2.55;;
75446;SDS011;64024;55.820;37.574;2023-02-13T05:26:20;3.67;;;2.70;;
75446;SDS011;64024;55.820;37.574;2023-02-13T05:28:46;3.45;;;2.60;;
75446;SDS011;64024;55.820;37.574;2023-02-13T05:31:30;4.35;;;2.58;;
75446;SDS011;64024;55.820;37.574;2023-02-13T05:33:55;3.42;;;2.72;;
75446;SDS011;64024;55.820;37.574;2023-02-13T05:36:21;3.50;;;2.70;;
75446;SDS011;64024;55.820;37.574;2023-02-13T05:38:46;4.05;;;2.88;;
75446;SDS011;64024;55.820;37.574;2023-02-13T05:41:12;4.32;;;2.75;;
75446;SDS011;64024;55.820;37.574;2023-02-13T05:43:38;3.65;;;2.70;;
75446;SDS011;64024;55.820;37.574;2023-02-13T05:46:04;3.58;;;2.72;;
75446;SDS011;64024;55.820;37.574;2023-02-13T05:48:31;4.93;;;2.83;;
75446;SDS011;64024;55.820;37.574;2023-02-13T05:50:57;4.85;;;2.60;;
75446;SDS011;64024;55.820;37.574;2023-02-13T05:53:23;3.50;;;3.00;;
75446;SDS011;64024;55.820;37.574;2023-02-13T05:55:48;3.28;;;2.53;;
75446;SDS011;64024;55.820;37.574;2023-02-13T05:58:20;3.28;;;2.83;;
75446;SDS011;64024;55.820;37.574;2023-02-13T06:00:46;4.35;;;3.95;;
75446;SDS011;64024;55.820;37.574;2023-02-13T06:03:12;5.15;;;3.13;;
75446;SDS011;64024;55.820;37.574;2023-02-13T06:05:38;3.35;;;2.45;;
75446;SDS011;64024;55.820;37.574;2023-02-13T06:08:04;3.15;;;2.42;;
75446;SDS011;64024;55.820;37.574;2023-02-13T06:10:29;5.22;;;3.13;;
75446;SDS011;64024;55.820;37.574;2023-02-13T06:12:55;3.38;;;2.50;;
75446;SDS011;64024;55.820;37.574;2023-02-13T06:15:20;3.20;;;2.45;;
75446;SDS011;64024;55.820;37.574;2023-02-13T06:17:46;4.35;;;3.03;;
75446;SDS011;64024;55.820;37.574;2023-02-13T06:20:12;4.45;;;2.40;;
75446;SDS011;64024;55.820;37.574;2023-02-13T06:22:37;4.53;;;2.80;;
75446;SDS011;64024;55.820;37.574;2023-02-13T06:25:03;4.03;;;3.28;;
75446;SDS011;64024;55.820;37.574;2023-02-13T06:27:29;4.07;;;3.10;;
75446;SDS011;64024;55.820;37.574;2023-02-13T06:29:55;3.47;;;2.40;;
75446;SDS011;64024;55.820;37.574;2023-02-13T06:32:21;3.92;;;3.00;;
75446;SDS011;64024;55.820;37.574;2023-02-13T06:34:46;4.15;;;2.97;;
75446;SDS011;64024;55.820;37.574;2023-02-13T06:37:13;3.53;;;2.50;;
75446;SDS011;64024;55.820;37.574;2023-02-13T06:39:39;4.47;;;3.28;;
75446;SDS011;64024;55.820;37.574;2023-02-13T06:42:05;4.78;;;3.08;;
75446;SDS011;64024;55.820;37.574;2023-02-13T06:44:30;4.00;;;2.80;;
75446;SDS011;64024;55.820;37.574;2023-02-13T06:46:56;4.13;;;2.97;;
75446;SDS011;64024;55.820;37.574;2023-02-13T06:49:22;4.70;;;3.72;;
75446;SDS011;64024;55.820;37.574;2023-02-13T06:51:47;3.50;;;3.00;;
75446;SDS011;64024;55.820;37.574;2023-02-13T06:54:13;4.38;;;3.05;;
75446;SDS011;64024;55.820;37.574;2023-02-13T06:56:39;4.53;;;3.50;;
75446;SDS011;64024;55.820;37.574;2023-02-13T06:59:04;3.38;;;2.50;;
75446;SDS011;64024;55.820;37.574;2023-02-13T07:01:30;3.42;;;2.53;;
75446;SDS011;64024;55.820;37.574;2023-02-13T07:03:56;4.07;;;2.92;;
75446;SDS011;64024;55.820;37.574;2023-02-13T07:06:22;3.00;;;2.70;;
75446;SDS011;64024;55.820;37.574;2023-02-13T07:08:48;4.70;;;2.83;;
75446;SDS011;64024;55.820;37.574;2023-02-13T07:11:19;4.15;;;2.83;;
75446;SDS011;64024;55.820;37.574;2023-02-13T07:13:47;4.63;;;3.75;;
75446;SDS011;64024;55.820;37.574;2023-02-13T07:16:12;8.40;;;3.72;;
75446;SDS011;64024;55.820;37.574;2023-02-13T07:18:39;6.00;;;3.25;;
75446;SDS011;64024;55.820;37.574;2023-02-13T07:21:05;4.88;;;2.38;;
75446;SDS011;64024;55.820;37.574;2023-02-13T07:23:32;3.45;;;2.88;;
75446;SDS011;64024;55.820;37.574;2023-02-13T07:25:58;3.72;;;2.45;;
75446;SDS011;64024;55.820;37.574;2023-02-13T07:28:25;3.63;;;2.50;;
75446;SDS011;64024;55.820;37.574;2023-02-13T07:30:51;3.13;;;2.28;;
75446;SDS011;64024;55.820;37.574;2023-02-13T07:33:17;3.90;;;2.30;;
75446;SDS011;64024;55.820;37.574;2023-02-13T07:35:45;3.38;;;2.65;;
75446;SDS011;64024;55.820;37.574;2023-02-13T07:38:12;2.85;;;2.58;;
75446;SDS011;64024;55.820;37.574;2023-02-13T07:40:38;4.13;;;3.28;;
75446;SDS011;64024;55.820;37.574;2023-02-13T07:43:03;2.80;;;2.50;;
75446;SDS011;64024;55.820;37.574;2023-02-13T07:45:29;4.47;;;2.63;;
75446;SDS011;64024;55.820;37.574;2023-02-13T07:47:55;2.78;;;2.42;;
75446;SDS011;64024;55.820;37.574;2023-02-13T07:50:21;2.90;;;2.20;;
75446;SDS011;64024;55.820;37.574;2023-02-13T07:52:56;2.95;;;2.45;;
75446;SDS011;64024;55.820;37.574;2023-02-13T07:55:24;2.88;;;2.05;;
75446;SDS011;64024;55.820;37.574;2023-02-13T07:57:51;4.40;;;3.28;;
75446;SDS011;64024;55.820;37.574;2023-02-13T08:00:17;3.33;;;3.00;;
75446;SDS011;64024;55.820;37.574;2023-02-13T08:02:43;3.10;;;2.28;;
75446;SDS011;64024;55.820;37.574;2023-02-13T08:05:09;5.00;;;2.95;;
75446;SDS011;64024;55.820;37.574;2023-02-13T08:07:35;3.53;;;3.05;;
75446;SDS011;64024;55.820;37.574;2023-02-13T08:10:02;3.85;;;3.20;;
75446;SDS011;64024;55.820;37.574;2023-02-13T08:12:49;3.40;;;2.75;;
75446;SDS011;64024;55.820;37.574;2023-02-13T08:15:17;3.92;;;3.30;;
75446;SDS011;64024;55.820;37.574;2023-02-13T08:17:43;3.83;;;2.80;;
75446;SDS011;64024;55.820;37.574;2023-02-13T08:20:09;3.92;;;3.58;;
75446;SDS011;64024;55.820;37.574;2023-02-13T08:22:35;3.70;;;3.00;;
75446;SDS011;64024;55.820;37.574;2023-02-13T08:25:02;3.90;;;3.03;;
75446;SDS011;64024;55.820;37.574;2023-02-13T08:27:28;5.43;;;3.17;;
75446;SDS011;64024;55.820;37.574;2023-02-13T08:29:55;6.55;;;2.85;;
75446;SDS011;64024;55.820;37.574;2023-02-13T08:32:21;3.75;;;3.00;;
75446;SDS011;64024;55.820;37.574;2023-02-13T08:34:48;3.30;;;2.47;;
75446;SDS011;64024;55.820;37.574;2023-02-13T08:37:14;3.30;;;2.70;;
75446;SDS011;64024;55.820;37.574;2023-02-13T08:39:39;3.38;;;2.80;;
75446;SDS011;64024;55.820;37.574;2023-02-13T08:42:05;4.30;;;2.95;;
75446;SDS011;64024;55.820;37.574;2023-02-13T08:44:31;3.42;;;3.08;;
75446;SDS011;64024;55.820;37.574;2023-02-13T08:46:57;3.25;;;2.90;;
75446;SDS011;64024;55.820;37.574;2023-02-13T08:49:23;3.03;;;2.42;;
75446;SDS011;64024;55.820;37.574;2023-02-13T08:51:49;3.95;;;2.75;;
75446;SDS011;64024;55.820;37.574;2023-02-13T08:54:14;3.35;;;3.05;;
75446;SDS011;64024;55.820;37.574;2023-02-13T08:56:41;4.40;;;2.50;;
75446;SDS011;64024;55.820;37.574;2023-02-13T08:59:07;3.75;;;3.30;;
75446;SDS011;64024;55.820;37.574;2023-02-13T09:01:32;3.42;;;2.63;;
75446;SDS011;64024;55.820;37.574;2023-02-13T09:03:58;3.25;;;2.47;;
75446;SDS011;64024;55.820;37.574;2023-02-13T09:06:24;5.63;;;2.50;;
75446;SDS011;64024;55.820;37.574;2023-02-13T09:08:53;3.65;;;2.70;;
75446;SDS011;64024;55.820;37.574;2023-02-13T09:11:19;6.38;;;3.05;;
75446;SDS011;64024;55.820;37.574;2023-02-13T09:13:47;3.42;;;2.75;;
75446;SDS011;64024;55.820;37.574;2023-02-13T09:16:14;7.40;;;4.43;;
75446;SDS011;64024;55.820;37.574;2023-02-13T09:18:40;6.43;;;4.97;;
75446;SDS011;64024;55.820;37.574;2023-02-13T09:21:07;8.02;;;5.15;;
75446;SDS011;64024;55.820;37.574;2023-02-13T09:23:37;7.32;;;5.82;;
75446;SDS011;64024;55.820;37.574;2023-02-13T09:26:05;8.77;;;4.72;;
75446;SDS011;64024;55.820;37.574;2023-02-13T09:28:34;5.32;;;3.72;;
75446;SDS011;64024;55.820;37.574;2023-02-13T09:31:10;5.07;;;3.15;;
75446;SDS011;64024;55.820;37.574;2023-02-13T09:33:39;5.13;;;3.88;;
75446;SDS011;64024;55.820;37.574;2023-02-13T09:36:09;3.47;;;2.85;;
75446;SDS011;64024;55.820;37.574;2023-02-13T09:38:37;4.38;;;2.35;;
75446;SDS011;64024;55.820;37.574;2023-02-13T09:41:06;4.00;;;2.25;;
75446;SDS011;64024;55.820;37.574;2023-02-13T09:43:51;3.50;;;2.80;;
75446;SDS011;64024;55.820;37.574;2023-02-13T09:48:52;2.65;;;2.33;;
75446;SDS011;64024;55.820;37.574;2023-02-13T09:51:21;7.45;;;2.47;;
75446;SDS011;64024;55.820;37.574;2023-02-13T09:54:00;2.55;;;1.95;;
75446;SDS011;64024;55.820;37.574;2023-02-13T10:02:00;2.78;;;1.98;;
75446;SDS011;64024;55.820;37.574;2023-02-13T10:10:25;2.80;;;2.25;;
75446;SDS011;64024;55.820;37.574;2023-02-13T10:13:18;3.17;;;2.42;;
75446;SDS011;64024;55.820;37.574;2023-02-13T10:16:16;3.38;;;2.30;;
75446;SDS011;64024;55.820;37.574;2023-02-13T10:18:50;3.75;;;2.67;;
75446;SDS011;64024;55.820;37.574;2023-02-13T10:23:49;3.33;;;2.45;;
75446;SDS011;64024;55.820;37.574;2023-02-13T10:26:22;2.58;;;2.03;;
75446;SDS011;64024;55.820;37.574;2023-02-13T10:29:08;5.72;;;2.78;;
75446;SDS011;64024;55.820;37.574;2023-02-13T10:32:01;2.97;;;2.20;;
75446;SDS011;64024;55.820;37.574;2023-02-13T10:34:33;3.35;;;2.30;;
75446;SDS011;64024;55.820;37.574;2023-02-13T10:37:07;5.20;;;2.40;;
75446;SDS011;64024;55.820;37.574;2023-02-13T10:39:39;3.10;;;2.10;;
75446;SDS011;64024;55.820;37.574;2023-02-13T10:42:21;2.90;;;2.17;;
75446;SDS011;64024;55.820;37.574;2023-02-13T10:50:14;3.75;;;2.28;;
75446;SDS011;64024;55.820;37.574;2023-02-13T10:55:30;4.75;;;2.60;;
75446;SDS011;64024;55.820;37.574;2023-02-13T11:00:31;4.00;;;2.65;;
75446;SDS011;64024;55.820;37.574;2023-02-13T11:03:03;4.05;;;2.50;;
75446;SDS011;64024;55.820;37.574;2023-02-13T11:05:32;2.30;;;2.00;;
75446;SDS011;64024;55.820;37.574;2023-02-13T11:08:02;3.70;;;2.65;;
75446;SDS011;64024;55.820;37.574;2023-02-13T11:10:39;4.40;;;2.65;;
75446;SDS011;64024;55.820;37.574;2023-02-13T11:13:15;3.65;;;2.50;;
75446;SDS011;64024;55.820;37.574;2023-02-13T11:15:41;2.63;;;2.17;;
75446;SDS011;64024;55.820;37.574;2023-02-13T11:18:25;2.55;;;2.05;;
75446;SDS011;64024;55.820;37.574;2023-02-13T11:21:00;2.45;;;1.90;;
75446;SDS011;64024;55.820;37.574;2023-02-13T11:26:23;4.10;;;2.33;;
75446;SDS011;64024;55.820;37.574;2023-02-13T11:29:17;3.10;;;2.33;;
75446;SDS011;64024;55.820;37.574;2023-02-13T11:31:46;2.53;;;2.15;;
75446;SDS011;64024;55.820;37.574;2023-02-13T11:34:51;6.45;;;2.10;;
75446;SDS011;64024;55.820;37.574;2023-02-13T11:37:20;5.43;;;3.08;;
75446;SDS011;64024;55.820;37.574;2023-02-13T11:39:47;3.97;;;2.35;;
75446;SDS011;64024;55.820;37.574;2023-02-13T11:42:16;4.05;;;2.20;;
75446;SDS011;64024;55.820;37.574;2023-02-13T11:44:48;2.90;;;2.58;;
75446;SDS011;64024;55.820;37.574;2023-02-13T11:47:29;3.20;;;2.65;;
75446;SDS011;64024;55.820;37.574;2023-02-13T11:49:59;3.17;;;2.70;;
75446;SDS011;64024;55.820;37.574;2023-02-13T11:52:30;4.50;;;2.63;;
75446;SDS011;64024;55.820;37.574;2023-02-13T11:55:00;2.72;;;2.30;;
75446;SDS011;64024;55.820;37.574;2023-02-13T11:57:34;4.70;;;2.83;;
75446;SDS011;64024;55.820;37.574;2023-02-13T12:00:35;4.43;;;2.45;;
75446;SDS011;64024;55.820;37.574;2023-02-13T12:02:55;6.30;;;2.50;;
75446;SDS011;64024;55.820;37.574;2023-02-13T12:05:22;2.38;;;2.10;;
75446;SDS011;64024;55.820;37.574;2023-02-13T12:07:49;4.60;;;2.92;;
75446;SDS011;64024;55.820;37.574;2023-02-13T12:15:22;2.92;;;2.47;;
75446;SDS011;64024;55.820;37.574;2023-02-13T12:18:04;3.65;;;2.60;;
75446;SDS011;64024;55.820;37.574;2023-02-13T12:20:53;2.95;;;2.22;;
75446;SDS011;64024;55.820;37.574;2023-02-13T12:23:32;3.85;;;2.70;;
75446;SDS011;64024;55.820;37.574;2023-02-13T12:31:12;3.45;;;2.30;;
75446;SDS011;64024;55.820;37.574;2023-02-13T12:39:33;3.92;;;2.38;;
75446;SDS011;64024;55.820;37.574;2023-02-13T12:42:08;3.88;;;2.03;;
75446;SDS011;64024;55.820;37.574;2023-02-13T12:47:59;2.90;;;1.98;;
75446;SDS011;64024;55.820;37.574;2023-02-13T12:50:28;9.80;;;3.15;;
75446;SDS011;64024;55.820;37.574;2023-02-13T12:53:20;9.90;;;2.75;;
75446;SDS011;64024;55.820;37.574;2023-02-13T12:56:02;11.00;;;3.20;;
75446;SDS011;64024;55.820;37.574;2023-02-13T13:04:13;3.15;;;1.95;;
75446;SDS011;64024;55.820;37.574;2023-02-13T13:27:10;2.38;;;2.03;;
75446;SDS011;64024;55.820;37.574;2023-02-13T13:29:50;2.28;;;1.92;;
75446;SDS011;64024;55.820;37.574;2023-02-13T13:32:20;2.40;;;2.00;;
75446;SDS011;64024;55.820;37.574;2023-02-13T13:34:47;5.05;;;2.28;;
75446;SDS011;64024;55.820;37.574;2023-02-13T13:39:50;3.58;;;2.00;;
75446;SDS011;64024;55.820;37.574;2023-02-13T13:45:23;2.97;;;2.17;;
75446;SDS011;64024;55.820;37.574;2023-02-13T13:48:26;4.50;;;2.40;;
75446;SDS011;64024;55.820;37.574;2023-02-13T13:50:55;4.65;;;3.45;;
75446;SDS011;64024;55.820;37.574;2023-02-13T13:53:25;4.88;;;3.10;;
75446;SDS011;64024;55.820;37.574;2023-02-13T13:58:23;3.30;;;2.15;;
75446;SDS011;64024;55.820;37.574;2023-02-13T14:03:39;3.30;;;2.20;;
75446;SDS011;64024;55.820;37.574;2023-02-13T14:06:09;3.50;;;2.00;;
75446;SDS011;64024;55.820;37.574;2023-02-13T14:11:05;3.78;;;2.58;;
75446;SDS011;64024;55.820;37.574;2023-02-13T14:13:35;2.72;;;2.38;;
75446;SDS011;64024;55.820;37.574;2023-02-13T14:16:04;2.50;;;2.28;;
75446;SDS011;64024;55.820;37.574;2023-02-13T14:18:36;2.83;;;2.13;;
75446;SDS011;64024;55.820;37.574;2023-02-13T14:21:03;3.00;;;2.33;;
75446;SDS011;64024;55.820;37.574;2023-02-13T14:23:43;2.58;;;1.83;;
75446;SDS011;64024;55.820;37.574;2023-02-13T14:33:52;2.28;;;2.00;;
75446;SDS011;64024;55.820;37.574;2023-02-13T14:36:40;2.55;;;2.15;;
75446;SDS011;64024;55.820;37.574;2023-02-13T14:39:26;4.22;;;2.20;;
75446;SDS011;64024;55.820;37.574;2023-02-13T14:44:21;3.08;;;2.17;;
75446;SDS011;64024;55.820;37.574;2023-02-13T14:46:47;3.00;;;2.55;;
75446;SDS011;64024;55.820;37.574;2023-02-13T14:49:25;4.70;;;2.65;;
75446;SDS011;64024;55.820;37.574;2023-02-13T14:51:54;3.55;;;2.42;;
75446;SDS011;64024;55.820;37.574;2023-02-13T14:54:32;4.22;;;2.50;;
75446;SDS011;64024;55.820;37.574;2023-02-13T14:57:36;2.28;;;1.83;;
75446;SDS011;64024;55.820;37.574;2023-02-13T15:02:57;3.88;;;2.45;;
75446;SDS011;64024;55.820;37.574;2023-02-13T15:05:31;3.55;;;2.50;;
75446;SDS011;64024;55.820;37.574;2023-02-13T15:08:18;3.45;;;2.55;;
75446;SDS011;64024;55.820;37.574;2023-02-13T15:10:48;3.47;;;2.30;;
75446;SDS011;64024;55.820;37.574;2023-02-13T15:13:16;3.75;;;2.58;;
75446;SDS011;64024;55.820;37.574;2023-02-13T15:15:49;4.25;;;2.50;;
75446;SDS011;64024;55.820;37.574;2023-02-13T15:18:38;2.92;;;2.00;;
75446;SDS011;64024;55.820;37.574;2023-02-13T15:21:20;3.50;;;2.72;;
75446;SDS011;64024;55.820;37.574;2023-02-13T15:23:53;3.45;;;2.50;;
75446;SDS011;64024;55.820;37.574;2023-02-13T15:26:21;4.30;;;2.45;;
75446;SDS011;64024;55.820;37.574;2023-02-13T15:29:00;2.90;;;2.20;;
75446;SDS011;64024;55.820;37.574;2023-02-13T15:31:31;3.85;;;2.40;;
75446;SDS011;64024;55.820;37.574;2023-02-13T15:33:57;3.47;;;2.97;;
75446;SDS011;64024;55.820;37.574;2023-02-13T15:36:24;3.30;;;2.85;;
75446;SDS011;64024;55.820;37.574;2023-02-13T15:38:58;3.20;;;2.63;;
75446;SDS011;64024;55.820;37.574;2023-02-13T15:41:25;3.08;;;2.45;;
75446;SDS011;64024;55.820;37.574;2023-02-13T15:43:57;3.10;;;2.60;;
75446;SDS011;64024;55.820;37.574;2023-02-13T15:46:25;3.33;;;2.30;;
75446;SDS011;64024;55.820;37.574;2023-02-13T15:48:54;4.90;;;3.72;;
75446;SDS011;64024;55.820;37.574;2023-02-13T15:51:26;3.03;;;2.55;;
75446;SDS011;64024;55.820;37.574;2023-02-13T15:53:54;3.53;;;2.88;;
75446;SDS011;64024;55.820;37.574;2023-02-13T15:56:22;3.00;;;2.47;;
75446;SDS011;64024;55.820;37.574;2023-02-13T15:58:48;3.75;;;3.30;;
75446;SDS011;64024;55.820;37.574;2023-02-13T16:03:41;3.42;;;2.97;;
75446;SDS011;64024;55.820;37.574;2023-02-13T16:06:16;4.30;;;3.70;;
75446;SDS011;64024;55.820;37.574;2023-02-13T16:08:44;3.90;;;3.50;;
75446;SDS011;64024;55.820;37.574;2023-02-13T16:16:42;4.25;;;3.75;;
75446;SDS011;64024;55.820;37.574;2023-02-13T16:21:57;4.32;;;2.67;;
75446;SDS011;64024;55.820;37.574;2023-02-13T16:24:27;2.85;;;2.58;;
75446;SDS011;64024;55.820;37.574;2023-02-13T16:26:53;4.55;;;2.75;;
75446;SDS011;64024;55.820;37.574;2023-02-13T16:29:20;3.17;;;2.88;;
75446;SDS011;64024;55.820;37.574;2023-02-13T16:31:48;3.03;;;2.63;;
75446;SDS011;64024;55.820;37.574;2023-02-13T16:34:22;4.38;;;2.75;;
75446;SDS011;64024;55.820;37.574;2023-02-13T16:36:53;2.92;;;2.55;;
75446;SDS011;64024;55.820;37.574;2023-02-13T16:41:53;3.45;;;2.50;;
75446;SDS011;64024;55.820;37.574;2023-02-13T16:44:22;3.58;;;2.58;;
75446;SDS011;64024;55.820;37.574;2023-02-13T16:46:53;3.15;;;2.50;;
75446;SDS011;64024;55.820;37.574;2023-02-13T16:49:22;4.32;;;2.83;;
75446;SDS011;64024;55.820;37.574;2023-02-13T16:54:24;3.00;;;2.40;;
75446;SDS011;64024;55.820;37.574;2023-02-13T16:56:54;4.55;;;2.72;;
75446;SDS011;64024;55.820;37.574;2023-02-13T17:04:41;4.22;;;3.17;;
75446;SDS011;64024;55.820;37.574;2023-02-13T17:07:11;4.72;;;2.50;;
75446;SDS011;64024;55.820;37.574;2023-02-13T17:09:43;3.42;;;2.67;;
75446;SDS011;64024;55.820;37.574;2023-02-13T17:12:12;5.45;;;3.53;;
75446;SDS011;64024;55.820;37.574;2023-02-13T17:17:26;3.45;;;2.45;;
75446;SDS011;64024;55.820;37.574;2023-02-13T17:19:54;3.13;;;2.67;;
75446;SDS011;64024;55.820;37.574;2023-02-13T17:24:57;4.18;;;2.47;;
75446;SDS011;64024;55.820;37.574;2023-02-13T17:27:23;2.90;;;2.60;;
75446;SDS011;64024;55.820;37.574;2023-02-13T17:29:49;3.63;;;3.03;;
75446;SDS011;64024;55.820;37.574;2023-02-13T17:32:16;3.67;;;2.35;;
75446;SDS011;64024;55.820;37.574;2023-02-13T17:34:43;3.80;;;2.90;;
75446;SDS011;64024;55.820;37.574;2023-02-13T17:40:04;2.85;;;2.50;;
75446;SDS011;64024;55.820;37.574;2023-02-13T17:42:30;2.88;;;2.42;;
75446;SDS011;64024;55.820;37.574;2023-02-13T17:44:56;3.13;;;2.42;;
75446;SDS011;64024;55.820;37.574;2023-02-13T17:47:23;2.70;;;2.17;;
75446;SDS011;64024;55.820;37.574;2023-02-13T17:49:49;3.58;;;3.05;;
75446;SDS011;64024;55.820;37.574;2023-02-13T17:52:17;3.40;;;2.65;;
75446;SDS011;64024;55.820;37.574;2023-02-13T17:54:48;2.67;;;2.45;;